sensor_id;sensor_type;location;lat;lon;timestamp;P1;durP1;ratioP1;P2;durP2;ratioP2
7587;SDS011;3835;48.850;8.938;2022-12-11T00:01:37;28.23;;;20.35;;
7587;SDS011;3835;48.850;8.938;2022-12-11T00:04:04;30.15;;;22.58;;
7587;SDS011;3835;48.850;8.938;2022-12-11T00:06:31;44.08;;;25.75;;
7587;SDS011;3835;48.850;8.938;2022-12-11T00:08:58;48.58;;;27.23;;
7587;SDS011;3835;48.850;8.938;2022-12-11T00:11:24;51.97;;;27.73;;
7587;SDS011;3835;48.850;8.938;2022-12-11T00:13:51;75.82;;;31.73;;
7587;SDS011;3835;48.850;8.938;2022-12-11T00:16:18;29.95;;;21.70;;
7587;SDS011;3835;48.850;8.938;2022-12-11T00:18:46;26.83;;;19.52;;
7587;SDS011;3835;48.850;8.938;2022-12-11T00:21:13;21.70;;;18.80;;
7587;SDS011;3835;48.850;8.938;2022-12-11T00:23:40;21.00;;;18.77;;
7587;SDS011;3835;48.850;8.938;2022-12-11T00:26:08;22.92;;;20.52;;
7587;SDS011;3835;48.850;8.938;2022-12-11T00:28:37;28.95;;;20.65;;
7587;SDS011;3835;48.850;8.938;2022-12-11T00:31:05;34.70;;;21.38;;
7587;SDS011;3835;48.850;8.938;2022-12-11T00:33:32;25.88;;;20.13;;
7587;SDS011;3835;48.850;8.938;2022-12-11T00:36:00;28.50;;;22.15;;
7587;SDS011;3835;48.850;8.938;2022-12-11T00:38:28;27.55;;;20.65;;
7587;SDS011;3835;48.850;8.938;2022-12-11T00:40:56;25.92;;;19.95;;
7587;SDS011;3835;48.850;8.938;2022-12-11T00:43:23;20.13;;;18.13;;
7587;SDS011;3835;48.850;8.938;2022-12-11T00:45:50;19.65;;;17.77;;
7587;SDS011;3835;48.850;8.938;2022-12-11T00:48:17;20.63;;;18.48;;
7587;SDS011;3835;48.850;8.938;2022-12-11T00:50:44;20.92;;;19.02;;
7587;SDS011;3835;48.850;8.938;2022-12-11T00:53:13;18.55;;;17.00;;
7587;SDS011;3835;48.850;8.938;2022-12-11T00:55:40;21.02;;;18.48;;
7587;SDS011;3835;48.850;8.938;2022-12-11T00:58:08;22.40;;;18.48;;
7587;SDS011;3835;48.850;8.938;2022-12-11T01:00:36;32.72;;;20.30;;
7587;SDS011;3835;48.850;8.938;2022-12-11T01:03:03;24.55;;;20.35;;
7587;SDS011;3835;48.850;8.938;2022-12-11T01:05:30;21.00;;;18.73;;
7587;SDS011;3835;48.850;8.938;2022-12-11T01:07:57;22.90;;;18.25;;
7587;SDS011;3835;48.850;8.938;2022-12-11T01:10:26;20.65;;;18.48;;
7587;SDS011;3835;48.850;8.938;2022-12-11T01:12:54;19.52;;;17.05;;
7587;SDS011;3835;48.850;8.938;2022-12-11T01:15:22;21.33;;;17.70;;
7587;SDS011;3835;48.850;8.938;2022-12-11T01:17:51;20.67;;;18.65;;
7587;SDS011;3835;48.850;8.938;2022-12-11T01:20:18;23.40;;;19.83;;
7587;SDS011;3835;48.850;8.938;2022-12-11T01:22:47;19.83;;;17.80;;
7587;SDS011;3835;48.850;8.938;2022-12-11T01:25:17;22.13;;;16.60;;
7587;SDS011;3835;48.850;8.938;2022-12-11T01:27:45;24.90;;;18.08;;
7587;SDS011;3835;48.850;8.938;2022-12-11T01:30:14;22.75;;;19.10;;
7587;SDS011;3835;48.850;8.938;2022-12-11T01:32:41;21.17;;;16.65;;
7587;SDS011;3835;48.850;8.938;2022-12-11T01:35:09;21.50;;;19.25;;
7587;SDS011;3835;48.850;8.938;2022-12-11T01:37:36;24.38;;;18.73;;
7587;SDS011;3835;48.850;8.938;2022-12-11T01:40:04;23.65;;;19.27;;
7587;SDS011;3835;48.850;8.938;2022-12-11T01:42:32;20.40;;;18.10;;
7587;SDS011;3835;48.850;8.938;2022-12-11T01:47:54;22.73;;;20.05;;
7587;SDS011;3835;48.850;8.938;2022-12-11T01:50:26;21.88;;;19.50;;
7587;SDS011;3835;48.850;8.938;2022-12-11T01:52:54;22.77;;;18.48;;
7587;SDS011;3835;48.850;8.938;2022-12-11T01:55:21;24.63;;;22.02;;
7587;SDS011;3835;48.850;8.938;2022-12-11T01:57:48;23.60;;;18.40;;
7587;SDS011;3835;48.850;8.938;2022-12-11T02:00:16;21.80;;;19.20;;
7587;SDS011;3835;48.850;8.938;2022-12-11T02:02:44;21.73;;;19.40;;
7587;SDS011;3835;48.850;8.938;2022-12-11T02:05:11;22.63;;;18.50;;
7587;SDS011;3835;48.850;8.938;2022-12-11T02:07:39;22.83;;;19.75;;
7587;SDS011;3835;48.850;8.938;2022-12-11T02:10:08;20.70;;;18.63;;
7587;SDS011;3835;48.850;8.938;2022-12-11T02:12:38;21.80;;;19.35;;
7587;SDS011;3835;48.850;8.938;2022-12-11T02:15:15;21.30;;;18.67;;
7587;SDS011;3835;48.850;8.938;2022-12-11T02:17:52;20.75;;;18.77;;
7587;SDS011;3835;48.850;8.938;2022-12-11T02:20:28;21.48;;;19.40;;
7587;SDS011;3835;48.850;8.938;2022-12-11T02:23:05;20.23;;;18.33;;
7587;SDS011;3835;48.850;8.938;2022-12-11T02:25:49;20.58;;;18.60;;
7587;SDS011;3835;48.850;8.938;2022-12-11T02:28:24;20.88;;;18.73;;
7587;SDS011;3835;48.850;8.938;2022-12-11T02:30:58;22.60;;;18.35;;
7587;SDS011;3835;48.850;8.938;2022-12-11T02:33:31;18.90;;;16.98;;
7587;SDS011;3835;48.850;8.938;2022-12-11T02:36:02;20.58;;;18.50;;
7587;SDS011;3835;48.850;8.938;2022-12-11T02:38:32;20.58;;;18.67;;
7587;SDS011;3835;48.850;8.938;2022-12-11T02:41:02;22.38;;;18.83;;
7587;SDS011;3835;48.850;8.938;2022-12-11T02:43:32;21.75;;;19.40;;
7587;SDS011;3835;48.850;8.938;2022-12-11T02:46:02;22.52;;;18.70;;
7587;SDS011;3835;48.850;8.938;2022-12-11T02:48:31;24.05;;;18.33;;
7587;SDS011;3835;48.850;8.938;2022-12-11T02:50:59;21.30;;;19.02;;
7587;SDS011;3835;48.850;8.938;2022-12-11T02:53:28;20.52;;;17.83;;
7587;SDS011;3835;48.850;8.938;2022-12-11T02:55:58;22.25;;;18.17;;
7587;SDS011;3835;48.850;8.938;2022-12-11T02:58:35;20.27;;;18.13;;
7587;SDS011;3835;48.850;8.938;2022-12-11T03:01:07;20.63;;;18.52;;
7587;SDS011;3835;48.850;8.938;2022-12-11T03:03:34;20.10;;;18.20;;
7587;SDS011;3835;48.850;8.938;2022-12-11T03:06:00;20.08;;;18.17;;
7587;SDS011;3835;48.850;8.938;2022-12-11T03:08:28;22.25;;;18.42;;
7587;SDS011;3835;48.850;8.938;2022-12-11T03:10:54;20.60;;;18.60;;
7587;SDS011;3835;48.850;8.938;2022-12-11T03:13:22;19.15;;;17.15;;
7587;SDS011;3835;48.850;8.938;2022-12-11T03:15:53;19.77;;;17.48;;
7587;SDS011;3835;48.850;8.938;2022-12-11T03:18:30;22.00;;;19.70;;
7587;SDS011;3835;48.850;8.938;2022-12-11T03:21:02;22.10;;;17.05;;
7587;SDS011;3835;48.850;8.938;2022-12-11T03:23:33;19.98;;;16.65;;
7587;SDS011;3835;48.850;8.938;2022-12-11T03:26:07;19.50;;;17.65;;
7587;SDS011;3835;48.850;8.938;2022-12-11T03:28:38;18.55;;;16.90;;
7587;SDS011;3835;48.850;8.938;2022-12-11T03:31:13;16.38;;;14.70;;
7587;SDS011;3835;48.850;8.938;2022-12-11T03:33:46;20.40;;;18.52;;
7587;SDS011;3835;48.850;8.938;2022-12-11T03:36:19;20.80;;;16.27;;
7587;SDS011;3835;48.850;8.938;2022-12-11T03:38:50;18.48;;;16.70;;
7587;SDS011;3835;48.850;8.938;2022-12-11T03:41:20;17.95;;;16.27;;
7587;SDS011;3835;48.850;8.938;2022-12-11T03:43:50;18.50;;;16.77;;
7587;SDS011;3835;48.850;8.938;2022-12-11T03:46:21;18.73;;;16.92;;
7587;SDS011;3835;48.850;8.938;2022-12-11T03:48:52;18.45;;;16.85;;
7587;SDS011;3835;48.850;8.938;2022-12-11T03:51:21;17.77;;;16.10;;
7587;SDS011;3835;48.850;8.938;2022-12-11T03:53:49;16.80;;;15.50;;
7587;SDS011;3835;48.850;8.938;2022-12-11T03:56:17;19.13;;;17.02;;
7587;SDS011;3835;48.850;8.938;2022-12-11T03:58:46;15.93;;;14.63;;
7587;SDS011;3835;48.850;8.938;2022-12-11T04:01:12;19.20;;;17.30;;
7587;SDS011;3835;48.850;8.938;2022-12-11T04:03:41;18.45;;;16.75;;
7587;SDS011;3835;48.850;8.938;2022-12-11T04:06:07;17.40;;;16.10;;
7587;SDS011;3835;48.850;8.938;2022-12-11T04:08:34;18.50;;;16.50;;
7587;SDS011;3835;48.850;8.938;2022-12-11T04:11:01;17.17;;;15.63;;
7587;SDS011;3835;48.850;8.938;2022-12-11T04:13:46;19.13;;;17.10;;
7587;SDS011;3835;48.850;8.938;2022-12-11T04:16:34;17.48;;;16.00;;
7587;SDS011;3835;48.850;8.938;2022-12-11T04:19:01;17.30;;;15.70;;
7587;SDS011;3835;48.850;8.938;2022-12-11T04:21:45;17.05;;;15.35;;
7587;SDS011;3835;48.850;8.938;2022-12-11T04:24:32;19.33;;;17.33;;
7587;SDS011;3835;48.850;8.938;2022-12-11T04:26:58;18.88;;;17.05;;
7587;SDS011;3835;48.850;8.938;2022-12-11T04:29:25;19.08;;;17.27;;
7587;SDS011;3835;48.850;8.938;2022-12-11T04:31:52;17.30;;;15.90;;
7587;SDS011;3835;48.850;8.938;2022-12-11T04:34:20;19.90;;;18.10;;
7587;SDS011;3835;48.850;8.938;2022-12-11T04:36:47;19.15;;;17.35;;
7587;SDS011;3835;48.850;8.938;2022-12-11T04:39:14;18.08;;;16.55;;
7587;SDS011;3835;48.850;8.938;2022-12-11T04:41:41;19.95;;;18.00;;
7587;SDS011;3835;48.850;8.938;2022-12-11T04:44:08;17.77;;;16.00;;
7587;SDS011;3835;48.850;8.938;2022-12-11T04:46:35;17.83;;;16.20;;
7587;SDS011;3835;48.850;8.938;2022-12-11T04:49:02;18.03;;;16.30;;
7587;SDS011;3835;48.850;8.938;2022-12-11T04:51:30;18.10;;;16.13;;
7587;SDS011;3835;48.850;8.938;2022-12-11T04:53:57;19.50;;;17.80;;
7587;SDS011;3835;48.850;8.938;2022-12-11T04:56:24;17.08;;;15.48;;
7587;SDS011;3835;48.850;8.938;2022-12-11T04:58:50;18.50;;;16.55;;
7587;SDS011;3835;48.850;8.938;2022-12-11T05:01:18;18.30;;;16.40;;
7587;SDS011;3835;48.850;8.938;2022-12-11T05:03:47;18.95;;;16.75;;
7587;SDS011;3835;48.850;8.938;2022-12-11T05:06:14;16.77;;;14.93;;
7587;SDS011;3835;48.850;8.938;2022-12-11T05:08:43;16.70;;;15.13;;
7587;SDS011;3835;48.850;8.938;2022-12-11T05:11:11;16.70;;;14.93;;
7587;SDS011;3835;48.850;8.938;2022-12-11T05:13:39;17.55;;;15.93;;
7587;SDS011;3835;48.850;8.938;2022-12-11T05:16:07;16.33;;;14.95;;
7587;SDS011;3835;48.850;8.938;2022-12-11T05:18:35;18.25;;;16.73;;
7587;SDS011;3835;48.850;8.938;2022-12-11T05:21:02;22.52;;;19.17;;
7587;SDS011;3835;48.850;8.938;2022-12-11T05:23:32;18.75;;;17.05;;
7587;SDS011;3835;48.850;8.938;2022-12-11T05:26:01;21.00;;;16.48;;
7587;SDS011;3835;48.850;8.938;2022-12-11T05:28:31;18.23;;;16.63;;
7587;SDS011;3835;48.850;8.938;2022-12-11T05:31:00;18.55;;;16.65;;
7587;SDS011;3835;48.850;8.938;2022-12-11T05:33:29;18.25;;;16.63;;
7587;SDS011;3835;48.850;8.938;2022-12-11T05:35:56;18.45;;;16.10;;
7587;SDS011;3835;48.850;8.938;2022-12-11T05:38:23;19.33;;;17.52;;
7587;SDS011;3835;48.850;8.938;2022-12-11T05:40:54;18.08;;;16.05;;
7587;SDS011;3835;48.850;8.938;2022-12-11T05:43:24;19.15;;;17.38;;
7587;SDS011;3835;48.850;8.938;2022-12-11T05:45:52;20.38;;;17.63;;
7587;SDS011;3835;48.850;8.938;2022-12-11T05:48:18;24.90;;;18.75;;
7587;SDS011;3835;48.850;8.938;2022-12-11T05:50:54;19.35;;;17.42;;
7587;SDS011;3835;48.850;8.938;2022-12-11T05:53:22;22.17;;;19.90;;
7587;SDS011;3835;48.850;8.938;2022-12-11T05:55:49;21.80;;;18.45;;
7587;SDS011;3835;48.850;8.938;2022-12-11T05:58:16;20.98;;;18.88;;
7587;SDS011;3835;48.850;8.938;2022-12-11T06:00:44;20.42;;;18.23;;
7587;SDS011;3835;48.850;8.938;2022-12-11T06:03:11;20.17;;;17.65;;
7587;SDS011;3835;48.850;8.938;2022-12-11T06:05:38;18.92;;;16.95;;
7587;SDS011;3835;48.850;8.938;2022-12-11T06:08:05;20.67;;;18.77;;
7587;SDS011;3835;48.850;8.938;2022-12-11T06:10:32;25.77;;;18.38;;
7587;SDS011;3835;48.850;8.938;2022-12-11T06:12:59;25.33;;;18.52;;
7587;SDS011;3835;48.850;8.938;2022-12-11T06:15:26;25.08;;;19.17;;
7587;SDS011;3835;48.850;8.938;2022-12-11T06:17:54;21.35;;;19.23;;
7587;SDS011;3835;48.850;8.938;2022-12-11T06:20:21;20.42;;;17.67;;
7587;SDS011;3835;48.850;8.938;2022-12-11T06:22:48;21.83;;;19.52;;
7587;SDS011;3835;48.850;8.938;2022-12-11T06:25:15;20.85;;;17.77;;
7587;SDS011;3835;48.850;8.938;2022-12-11T06:27:42;20.05;;;18.08;;
7587;SDS011;3835;48.850;8.938;2022-12-11T06:30:09;19.08;;;17.17;;
7587;SDS011;3835;48.850;8.938;2022-12-11T06:32:36;22.65;;;18.55;;
7587;SDS011;3835;48.850;8.938;2022-12-11T06:35:05;22.38;;;19.27;;
7587;SDS011;3835;48.850;8.938;2022-12-11T06:37:33;22.10;;;18.83;;
7587;SDS011;3835;48.850;8.938;2022-12-11T06:40:00;22.83;;;19.55;;
7587;SDS011;3835;48.850;8.938;2022-12-11T06:42:28;22.67;;;19.92;;
7587;SDS011;3835;48.850;8.938;2022-12-11T06:44:55;24.05;;;19.52;;
7587;SDS011;3835;48.850;8.938;2022-12-11T06:47:24;25.02;;;18.83;;
7587;SDS011;3835;48.850;8.938;2022-12-11T06:49:51;23.40;;;20.00;;
7587;SDS011;3835;48.850;8.938;2022-12-11T06:52:19;24.63;;;20.27;;
7587;SDS011;3835;48.850;8.938;2022-12-11T06:54:46;26.67;;;20.55;;
7587;SDS011;3835;48.850;8.938;2022-12-11T06:57:13;27.35;;;20.80;;
7587;SDS011;3835;48.850;8.938;2022-12-11T06:59:40;20.73;;;17.52;;
7587;SDS011;3835;48.850;8.938;2022-12-11T07:02:08;24.58;;;18.92;;
7587;SDS011;3835;48.850;8.938;2022-12-11T07:04:36;23.65;;;19.08;;
7587;SDS011;3835;48.850;8.938;2022-12-11T07:07:03;20.80;;;18.75;;
7587;SDS011;3835;48.850;8.938;2022-12-11T07:09:31;20.80;;;18.35;;
7587;SDS011;3835;48.850;8.938;2022-12-11T07:11:58;21.33;;;19.20;;
7587;SDS011;3835;48.850;8.938;2022-12-11T07:14:25;19.15;;;17.17;;
7587;SDS011;3835;48.850;8.938;2022-12-11T07:16:51;19.77;;;18.05;;
7587;SDS011;3835;48.850;8.938;2022-12-11T07:19:18;23.52;;;18.35;;
7587;SDS011;3835;48.850;8.938;2022-12-11T07:21:45;21.70;;;19.42;;
7587;SDS011;3835;48.850;8.938;2022-12-11T07:24:13;20.17;;;17.38;;
7587;SDS011;3835;48.850;8.938;2022-12-11T07:26:41;21.13;;;18.70;;
7587;SDS011;3835;48.850;8.938;2022-12-11T07:29:08;21.08;;;17.95;;
7587;SDS011;3835;48.850;8.938;2022-12-11T07:31:35;22.80;;;20.27;;
7587;SDS011;3835;48.850;8.938;2022-12-11T07:34:03;24.55;;;18.25;;
7587;SDS011;3835;48.850;8.938;2022-12-11T07:36:31;22.55;;;20.25;;
7587;SDS011;3835;48.850;8.938;2022-12-11T07:38:59;23.52;;;20.80;;
7587;SDS011;3835;48.850;8.938;2022-12-11T07:41:26;23.27;;;20.88;;
7587;SDS011;3835;48.850;8.938;2022-12-11T07:43:54;24.63;;;19.25;;
7587;SDS011;3835;48.850;8.938;2022-12-11T07:46:22;26.95;;;21.95;;
7587;SDS011;3835;48.850;8.938;2022-12-11T07:48:50;29.33;;;21.55;;
7587;SDS011;3835;48.850;8.938;2022-12-11T07:51:17;21.60;;;19.05;;
7587;SDS011;3835;48.850;8.938;2022-12-11T07:53:49;23.17;;;20.98;;
7587;SDS011;3835;48.850;8.938;2022-12-11T07:56:16;21.58;;;19.15;;
7587;SDS011;3835;48.850;8.938;2022-12-11T07:58:44;26.10;;;20.60;;
7587;SDS011;3835;48.850;8.938;2022-12-11T08:01:13;24.25;;;19.73;;
7587;SDS011;3835;48.850;8.938;2022-12-11T08:03:41;29.92;;;22.58;;
7587;SDS011;3835;48.850;8.938;2022-12-11T08:06:09;28.20;;;21.47;;
7587;SDS011;3835;48.850;8.938;2022-12-11T08:08:36;30.73;;;21.80;;
7587;SDS011;3835;48.850;8.938;2022-12-11T08:11:03;22.57;;;20.20;;
7587;SDS011;3835;48.850;8.938;2022-12-11T08:13:32;26.02;;;19.13;;
7587;SDS011;3835;48.850;8.938;2022-12-11T08:16:01;24.70;;;20.85;;
7587;SDS011;3835;48.850;8.938;2022-12-11T08:18:30;21.58;;;19.38;;
7587;SDS011;3835;48.850;8.938;2022-12-11T08:20:58;24.63;;;20.43;;
7587;SDS011;3835;48.850;8.938;2022-12-11T08:23:25;23.55;;;18.88;;
7587;SDS011;3835;48.850;8.938;2022-12-11T08:25:51;24.17;;;20.73;;
7587;SDS011;3835;48.850;8.938;2022-12-11T08:28:18;25.65;;;20.17;;
7587;SDS011;3835;48.850;8.938;2022-12-11T08:30:45;21.73;;;19.50;;
7587;SDS011;3835;48.850;8.938;2022-12-11T08:33:12;29.55;;;21.45;;
7587;SDS011;3835;48.850;8.938;2022-12-11T08:35:40;22.70;;;20.33;;
7587;SDS011;3835;48.850;8.938;2022-12-11T08:38:08;22.10;;;19.63;;
7587;SDS011;3835;48.850;8.938;2022-12-11T08:40:34;23.30;;;19.20;;
7587;SDS011;3835;48.850;8.938;2022-12-11T08:43:01;21.45;;;19.30;;
7587;SDS011;3835;48.850;8.938;2022-12-11T08:45:28;20.90;;;18.52;;
7587;SDS011;3835;48.850;8.938;2022-12-11T08:47:55;20.85;;;18.30;;
7587;SDS011;3835;48.850;8.938;2022-12-11T08:50:23;20.45;;;18.23;;
7587;SDS011;3835;48.850;8.938;2022-12-11T08:52:51;25.13;;;19.63;;
7587;SDS011;3835;48.850;8.938;2022-12-11T08:55:18;29.52;;;20.58;;
7587;SDS011;3835;48.850;8.938;2022-12-11T08:57:46;22.17;;;20.08;;
7587;SDS011;3835;48.850;8.938;2022-12-11T09:00:13;22.38;;;20.02;;
7587;SDS011;3835;48.850;8.938;2022-12-11T09:02:40;22.33;;;19.53;;
7587;SDS011;3835;48.850;8.938;2022-12-11T09:05:07;22.58;;;20.27;;
7587;SDS011;3835;48.850;8.938;2022-12-11T09:07:35;21.70;;;19.40;;
7587;SDS011;3835;48.850;8.938;2022-12-11T09:10:05;21.73;;;16.63;;
7587;SDS011;3835;48.850;8.938;2022-12-11T09:12:34;20.70;;;17.97;;
7587;SDS011;3835;48.850;8.938;2022-12-11T09:15:02;20.15;;;17.65;;
7587;SDS011;3835;48.850;8.938;2022-12-11T09:17:29;22.33;;;18.77;;
7587;SDS011;3835;48.850;8.938;2022-12-11T09:19:56;19.95;;;18.05;;
7587;SDS011;3835;48.850;8.938;2022-12-11T09:22:22;20.93;;;18.80;;
7587;SDS011;3835;48.850;8.938;2022-12-11T09:24:49;24.83;;;20.23;;
7587;SDS011;3835;48.850;8.938;2022-12-11T09:27:17;19.10;;;17.17;;
7587;SDS011;3835;48.850;8.938;2022-12-11T09:29:45;18.53;;;16.57;;
7587;SDS011;3835;48.850;8.938;2022-12-11T09:32:12;19.93;;;17.10;;
7587;SDS011;3835;48.850;8.938;2022-12-11T09:34:39;20.10;;;17.97;;
7587;SDS011;3835;48.850;8.938;2022-12-11T09:37:06;18.63;;;16.73;;
7587;SDS011;3835;48.850;8.938;2022-12-11T09:39:33;18.50;;;16.47;;
7587;SDS011;3835;48.850;8.938;2022-12-11T09:42:01;19.47;;;16.20;;
7587;SDS011;3835;48.850;8.938;2022-12-11T09:44:36;20.70;;;16.97;;
7587;SDS011;3835;48.850;8.938;2022-12-11T09:47:15;18.20;;;16.70;;
7587;SDS011;3835;48.850;8.938;2022-12-11T09:49:46;17.93;;;16.27;;
7587;SDS011;3835;48.850;8.938;2022-12-11T09:52:16;19.40;;;17.27;;
7587;SDS011;3835;48.850;8.938;2022-12-11T09:54:48;17.67;;;15.83;;
7587;SDS011;3835;48.850;8.938;2022-12-11T09:57:19;18.13;;;16.37;;
7587;SDS011;3835;48.850;8.938;2022-12-11T10:00:14;18.83;;;17.07;;
7587;SDS011;3835;48.850;8.938;2022-12-11T10:02:48;19.30;;;17.47;;
7587;SDS011;3835;48.850;8.938;2022-12-11T10:05:35;19.47;;;17.00;;
7587;SDS011;3835;48.850;8.938;2022-12-11T10:08:11;19.97;;;17.17;;
7587;SDS011;3835;48.850;8.938;2022-12-11T10:10:45;17.77;;;16.17;;
7587;SDS011;3835;48.850;8.938;2022-12-11T10:13:22;17.47;;;15.87;;
7587;SDS011;3835;48.850;8.938;2022-12-11T10:15:58;19.27;;;17.20;;
7587;SDS011;3835;48.850;8.938;2022-12-11T10:18:29;16.50;;;14.90;;
7587;SDS011;3835;48.850;8.938;2022-12-11T10:20:59;16.97;;;15.40;;
7587;SDS011;3835;48.850;8.938;2022-12-11T10:23:28;18.10;;;16.30;;
7587;SDS011;3835;48.850;8.938;2022-12-11T10:26:01;20.27;;;17.30;;
7587;SDS011;3835;48.850;8.938;2022-12-11T10:28:32;17.03;;;15.63;;
7587;SDS011;3835;48.850;8.938;2022-12-11T10:31:02;17.63;;;15.73;;
7587;SDS011;3835;48.850;8.938;2022-12-11T10:33:40;19.00;;;17.17;;
7587;SDS011;3835;48.850;8.938;2022-12-11T10:36:18;19.40;;;16.93;;
7587;SDS011;3835;48.850;8.938;2022-12-11T10:38:50;17.73;;;15.93;;
7587;SDS011;3835;48.850;8.938;2022-12-11T10:41:18;17.47;;;15.77;;
7587;SDS011;3835;48.850;8.938;2022-12-11T10:43:49;18.30;;;15.63;;
7587;SDS011;3835;48.850;8.938;2022-12-11T10:46:20;18.60;;;17.07;;
7587;SDS011;3835;48.850;8.938;2022-12-11T10:48:48;19.27;;;17.33;;
7587;SDS011;3835;48.850;8.938;2022-12-11T10:51:18;18.33;;;16.73;;
7587;SDS011;3835;48.850;8.938;2022-12-11T10:53:48;19.93;;;18.07;;
7587;SDS011;3835;48.850;8.938;2022-12-11T10:56:23;16.77;;;15.33;;
7587;SDS011;3835;48.850;8.938;2022-12-11T10:58:51;18.53;;;16.63;;
7587;SDS011;3835;48.850;8.938;2022-12-11T11:01:20;20.00;;;18.20;;
7587;SDS011;3835;48.850;8.938;2022-12-11T11:03:52;18.97;;;17.03;;
7587;SDS011;3835;48.850;8.938;2022-12-11T11:06:23;19.17;;;17.17;;
7587;SDS011;3835;48.850;8.938;2022-12-11T11:08:51;18.17;;;16.33;;
7587;SDS011;3835;48.850;8.938;2022-12-11T11:11:20;17.13;;;15.50;;
7587;SDS011;3835;48.850;8.938;2022-12-11T11:13:49;16.63;;;14.97;;
7587;SDS011;3835;48.850;8.938;2022-12-11T11:16:17;19.30;;;17.43;;
7587;SDS011;3835;48.850;8.938;2022-12-11T11:18:48;18.70;;;16.80;;
7587;SDS011;3835;48.850;8.938;2022-12-11T11:21:18;20.93;;;18.93;;
7587;SDS011;3835;48.850;8.938;2022-12-11T11:23:47;18.10;;;16.40;;
7587;SDS011;3835;48.850;8.938;2022-12-11T11:26:14;23.07;;;18.97;;
7587;SDS011;3835;48.850;8.938;2022-12-11T11:28:41;18.80;;;17.00;;
7587;SDS011;3835;48.850;8.938;2022-12-11T11:31:14;18.63;;;16.77;;
7587;SDS011;3835;48.850;8.938;2022-12-11T11:33:45;19.17;;;17.30;;
7587;SDS011;3835;48.850;8.938;2022-12-11T11:36:22;19.60;;;17.60;;
7587;SDS011;3835;48.850;8.938;2022-12-11T11:38:56;21.20;;;19.03;;
7587;SDS011;3835;48.850;8.938;2022-12-11T11:41:33;19.87;;;17.97;;
7587;SDS011;3835;48.850;8.938;2022-12-11T11:44:09;17.80;;;16.10;;
7587;SDS011;3835;48.850;8.938;2022-12-11T11:46:41;17.97;;;16.23;;
7587;SDS011;3835;48.850;8.938;2022-12-11T11:49:14;18.23;;;16.20;;
7587;SDS011;3835;48.850;8.938;2022-12-11T11:51:48;18.87;;;16.87;;
7587;SDS011;3835;48.850;8.938;2022-12-11T11:54:21;19.53;;;17.63;;
7587;SDS011;3835;48.850;8.938;2022-12-11T11:56:56;19.37;;;17.67;;
7587;SDS011;3835;48.850;8.938;2022-12-11T11:59:27;20.93;;;18.93;;
7587;SDS011;3835;48.850;8.938;2022-12-11T12:01:57;21.33;;;19.50;;
7587;SDS011;3835;48.850;8.938;2022-12-11T12:04:26;19.47;;;17.60;;
7587;SDS011;3835;48.850;8.938;2022-12-11T12:07:03;20.70;;;18.70;;
7587;SDS011;3835;48.850;8.938;2022-12-11T12:09:42;19.83;;;18.00;;
7587;SDS011;3835;48.850;8.938;2022-12-11T12:12:16;19.67;;;17.70;;
7587;SDS011;3835;48.850;8.938;2022-12-11T12:14:52;24.07;;;20.83;;
7587;SDS011;3835;48.850;8.938;2022-12-11T12:17:29;21.33;;;19.40;;
7587;SDS011;3835;48.850;8.938;2022-12-11T12:20:10;20.90;;;18.53;;
7587;SDS011;3835;48.850;8.938;2022-12-11T12:22:50;21.10;;;19.07;;
7587;SDS011;3835;48.850;8.938;2022-12-11T12:25:29;21.50;;;19.63;;
7587;SDS011;3835;48.850;8.938;2022-12-11T12:28:04;19.63;;;17.83;;
7587;SDS011;3835;48.850;8.938;2022-12-11T12:30:44;18.33;;;16.63;;
7587;SDS011;3835;48.850;8.938;2022-12-11T12:33:20;18.07;;;16.33;;
7587;SDS011;3835;48.850;8.938;2022-12-11T12:35:59;18.70;;;16.93;;
7587;SDS011;3835;48.850;8.938;2022-12-11T12:38:38;19.97;;;16.60;;
7587;SDS011;3835;48.850;8.938;2022-12-11T12:41:14;20.23;;;18.13;;
7587;SDS011;3835;48.850;8.938;2022-12-11T12:43:47;20.10;;;18.03;;
7587;SDS011;3835;48.850;8.938;2022-12-11T12:46:21;21.90;;;20.00;;
7587;SDS011;3835;48.850;8.938;2022-12-11T12:48:54;22.37;;;18.77;;
7587;SDS011;3835;48.850;8.938;2022-12-11T12:51:25;21.30;;;19.40;;
7587;SDS011;3835;48.850;8.938;2022-12-11T12:53:53;19.63;;;17.87;;
7587;SDS011;3835;48.850;8.938;2022-12-11T12:56:23;19.73;;;17.93;;
7587;SDS011;3835;48.850;8.938;2022-12-11T12:58:51;21.27;;;19.23;;
7587;SDS011;3835;48.850;8.938;2022-12-11T13:01:18;22.53;;;20.27;;
7587;SDS011;3835;48.850;8.938;2022-12-11T13:03:50;21.53;;;19.27;;
7587;SDS011;3835;48.850;8.938;2022-12-11T13:06:32;23.00;;;20.80;;
7587;SDS011;3835;48.850;8.938;2022-12-11T13:09:11;22.10;;;19.83;;
7587;SDS011;3835;48.850;8.938;2022-12-11T13:11:41;24.93;;;20.37;;
7587;SDS011;3835;48.850;8.938;2022-12-11T13:14:21;20.30;;;18.33;;
7587;SDS011;3835;48.850;8.938;2022-12-11T13:17:03;19.57;;;17.63;;
7587;SDS011;3835;48.850;8.938;2022-12-11T13:19:34;20.67;;;18.13;;
7587;SDS011;3835;48.850;8.938;2022-12-11T13:22:03;23.30;;;19.60;;
7587;SDS011;3835;48.850;8.938;2022-12-11T13:24:47;24.17;;;18.20;;
7587;SDS011;3835;48.850;8.938;2022-12-11T13:27:23;23.37;;;18.63;;
7587;SDS011;3835;48.850;8.938;2022-12-11T13:30:06;22.07;;;18.77;;
7587;SDS011;3835;48.850;8.938;2022-12-11T13:32:48;20.73;;;18.67;;
7587;SDS011;3835;48.850;8.938;2022-12-11T13:35:23;23.00;;;18.83;;
7587;SDS011;3835;48.850;8.938;2022-12-11T13:37:52;22.10;;;17.07;;
7587;SDS011;3835;48.850;8.938;2022-12-11T13:40:31;21.73;;;18.50;;
7587;SDS011;3835;48.850;8.938;2022-12-11T13:43:03;19.33;;;15.77;;
7587;SDS011;3835;48.850;8.938;2022-12-11T13:45:35;21.47;;;19.27;;
7587;SDS011;3835;48.850;8.938;2022-12-11T13:48:14;25.37;;;18.90;;
7587;SDS011;3835;48.850;8.938;2022-12-11T13:50:46;22.57;;;18.60;;
7587;SDS011;3835;48.850;8.938;2022-12-11T13:53:18;19.07;;;16.87;;
7587;SDS011;3835;48.850;8.938;2022-12-11T13:55:54;19.40;;;17.10;;
7587;SDS011;3835;48.850;8.938;2022-12-11T13:58:22;22.80;;;17.77;;
7587;SDS011;3835;48.850;8.938;2022-12-11T14:00:53;20.70;;;16.33;;
7587;SDS011;3835;48.850;8.938;2022-12-11T14:03:28;20.17;;;16.87;;
7587;SDS011;3835;48.850;8.938;2022-12-11T14:05:56;22.10;;;18.33;;
7587;SDS011;3835;48.850;8.938;2022-12-11T14:08:26;23.63;;;18.33;;
7587;SDS011;3835;48.850;8.938;2022-12-11T14:10:57;19.73;;;17.87;;
7587;SDS011;3835;48.850;8.938;2022-12-11T14:13:26;21.53;;;17.53;;
7587;SDS011;3835;48.850;8.938;2022-12-11T14:15:57;20.37;;;18.33;;
7587;SDS011;3835;48.850;8.938;2022-12-11T14:18:25;20.20;;;17.77;;
7587;SDS011;3835;48.850;8.938;2022-12-11T14:20:58;21.70;;;19.13;;
7587;SDS011;3835;48.850;8.938;2022-12-11T14:23:32;22.20;;;18.40;;
7587;SDS011;3835;48.850;8.938;2022-12-11T14:26:03;22.23;;;19.63;;
7587;SDS011;3835;48.850;8.938;2022-12-11T14:28:43;20.37;;;17.13;;
7587;SDS011;3835;48.850;8.938;2022-12-11T14:31:13;24.77;;;18.50;;
7587;SDS011;3835;48.850;8.938;2022-12-11T14:33:45;26.47;;;19.97;;
7587;SDS011;3835;48.850;8.938;2022-12-11T14:36:15;22.33;;;18.53;;
7587;SDS011;3835;48.850;8.938;2022-12-11T14:38:48;26.03;;;19.90;;
7587;SDS011;3835;48.850;8.938;2022-12-11T14:41:20;22.73;;;17.47;;
7587;SDS011;3835;48.850;8.938;2022-12-11T14:43:53;28.27;;;20.60;;
7587;SDS011;3835;48.850;8.938;2022-12-11T14:46:23;22.43;;;19.13;;
7587;SDS011;3835;48.850;8.938;2022-12-11T14:48:58;25.33;;;18.67;;
7587;SDS011;3835;48.850;8.938;2022-12-11T14:51:30;24.07;;;19.23;;
7587;SDS011;3835;48.850;8.938;2022-12-11T14:54:02;28.50;;;18.67;;
7587;SDS011;3835;48.850;8.938;2022-12-11T14:56:31;30.67;;;20.23;;
7587;SDS011;3835;48.850;8.938;2022-12-11T14:58:59;26.90;;;20.33;;
7587;SDS011;3835;48.850;8.938;2022-12-11T15:01:34;23.80;;;21.07;;
7587;SDS011;3835;48.850;8.938;2022-12-11T15:04:04;23.07;;;20.10;;
7587;SDS011;3835;48.850;8.938;2022-12-11T15:06:41;24.60;;;19.70;;
7587;SDS011;3835;48.850;8.938;2022-12-11T15:09:23;27.00;;;19.47;;